Time;durP1;ratioP1;P1;durP2;ratioP2;P2;SDS_P1;SDS_P2;PMS_P1;PMS_P2;Temp;Humidity;BMP_temperature;BMP_pressure;BME280_temperature;BME280_humidity;BME280_pressure;Samples;Min_cycle;Max_cycle;Signal;HPM_P1;HPM_P2
2022/08/12 00:43:25;;;;;;;1296.32;970.83;;;14.20;73.40;;;;;;4947729;29;20174;-82
2022/08/12 00:48:36;;;;;;;1006.95;911.10;;;14.30;71.60;;;;;;4947485;29;20055;-82
2022/08/12 00:51:03;;;;;;;957.25;882.67;;;14.40;70.90;;;;;;4948717;28;20027;-83
2022/08/12 00:53:29;;;;;;;982.83;905.17;;;14.40;70.50;;;;;;4948817;29;20028;-82
2022/08/12 00:55:57;;;;;;;1212.20;909.67;;;14.50;70.30;;;;;;4954551;28;20065;-82
2022/08/12 00:58:28;;;;;;;826.22;770.95;;;14.40;70.20;;;;;;4967416;28;20018;-83
2022/08/12 01:01:07;;;;;;;1406.63;867.13;;;14.40;70.10;;;;;;4953360;28;20043;-82
2022/08/12 01:11:52;;;;;;;1249.40;935.55;;;14.20;71.40;;;;;;4953740;28;20066;-82
2022/08/12 01:14:22;;;;;;;1050.25;951.63;;;14.20;71.40;;;;;;4959564;28;20442;-81
2022/08/12 01:16:49;;;;;;;1029.85;936.65;;;14.00;71.80;;;;;;4971489;28;20038;-82
2022/08/12 01:19:19;;;;;;;1058.68;958.25;;;14.10;71.60;;;;;;4973977;28;20125;-82
2022/08/12 01:22:27;;;;;;;1067.43;971.10;;;14.10;71.80;;;;;;4951402;28;20534;-82
2022/08/12 01:25:03;;;;;;;996.30;902.35;;;14.00;72.50;;;;;;4951316;28;20617;-82
2022/08/12 01:27:32;;;;;;;1027.20;938.53;;;13.90;73.30;;;;;;4973765;28;20066;-82
2022/08/12 01:30:00;;;;;;;1039.32;947.95;;;13.80;73.80;;;;;;4972055;28;20571;-82
2022/08/12 01:32:27;;;;;;;1062.75;964.05;;;13.90;73.10;;;;;;4932599;29;20039;-82
2022/08/12 01:35:00;;;;;;;1518.82;966.50;;;14.00;72.70;;;;;;4948035;29;20106;-82
2022/08/12 01:37:29;;;;;;;1272.80;954.90;;;14.00;73.00;;;;;;4944266;29;20700;-83
2022/08/12 01:39:57;;;;;;;1031.63;939.35;;;13.90;73.20;;;;;;4911945;29;20062;-85
2022/08/12 01:42:25;;;;;;;1249.72;930.55;;;13.80;73.50;;;;;;4930481;29;20049;-82
2022/08/12 01:44:54;;;;;;;987.83;904.70;;;13.80;74.30;;;;;;4945886;29;20027;-82
2022/08/12 01:47:41;;;;;;;1045.78;947.40;;;13.70;74.00;;;;;;4935381;29;20035;-82
2022/08/12 01:50:07;;;;;;;1289.60;968.03;;;13.70;75.20;;;;;;4930327;29;20035;-82
2022/08/12 01:53:11;;;;;;;1193.40;878.78;;;13.60;74.60;;;;;;4932636;29;20035;-82
2022/08/12 01:55:44;;;;;;;955.28;868.55;;;13.60;75.30;;;;;;4929505;29;20051;-82
2022/08/12 01:58:26;;;;;;;1004.90;924.90;;;13.40;76.10;;;;;;4944101;29;20542;-82
2022/08/12 02:01:00;;;;;;;1257.82;941.40;;;13.40;76.60;;;;;;4951383;28;20039;-83
2022/08/12 02:12:20;;;;;;;1206.25;893.47;;;13.10;79.90;;;;;;4966557;28;21230;-83
2022/08/12 02:14:51;;;;;;;1999.90;999.90;;;13.10;78.80;;;;;;4965563;28;20035;-83
2022/08/12 02:17:42;;;;;;;1999.90;999.90;;;13.00;80.40;;;;;;4965790;28;20406;-83
2022/08/12 02:20:35;;;;;;;;;;;13.10;79.70;;;;;;4966686;28;20057;-83
2022/08/12 02:23:03;;;;;;;1181.55;878.05;;;13.10;80.10;;;;;;4961370;28;19956;-84
2022/08/12 02:25:35;;;;;;;1999.90;999.90;;;12.90;80.80;;;;;;4948556;28;20246;-83
2022/08/12 02:28:01;;;;;;;1999.90;999.90;;;12.90;81.40;;;;;;4966478;28;20023;-83
2022/08/12 02:30:30;;;;;;;1999.90;999.90;;;12.80;82.10;;;;;;4929591;29;20082;-83
2022/08/12 02:32:57;;;;;;;1999.90;999.90;;;12.70;82.30;;;;;;4961198;28;20125;-83
2022/08/12 02:35:27;;;;;;;1999.90;999.90;;;12.60;83.20;;;;;;4966637;28;20617;-83
2022/08/12 02:37:56;;;;;;;1999.90;999.90;;;12.70;82.90;;;;;;4966691;28;20031;-84
2022/08/12 02:40:25;;;;;;;1999.90;999.90;;;12.60;84.10;;;;;;4966189;28;20494;-83
2022/08/12 02:43:20;;;;;;;1999.90;999.90;;;12.60;84.20;;;;;;4964579;28;20050;-84
2022/08/12 02:45:52;;;;;;;1999.90;999.90;;;12.60;84.30;;;;;;4961575;28;20029;-83
2022/08/12 02:48:37;;;;;;;1999.90;999.90;;;12.70;84.20;;;;;;4963753;28;20030;-84
2022/08/12 02:51:05;;;;;;;1999.90;999.90;;;12.60;84.40;;;;;;4965977;28;20709;-84
2022/08/12 02:53:33;;;;;;;1999.90;999.90;;;12.60;84.60;;;;;;4965331;28;20105;-84
2022/08/12 02:56:04;;;;;;;1999.90;999.90;;;12.60;84.90;;;;;;4948730;28;20134;-83
2022/08/12 02:58:31;;;;;;;1999.90;999.90;;;12.50;85.30;;;;;;4964597;28;20031;-83
2022/08/12 03:01:00;;;;;;;1999.90;999.90;;;12.50;84.90;;;;;;4928462;29;20039;-83
2022/08/12 03:03:30;;;;;;;1999.90;999.90;;;12.50;86.00;;;;;;4946415;29;20030;-83
2022/08/12 03:06:08;;;;;;;1999.90;999.90;;;12.40;87.20;;;;;;4947116;29;20754;-83
2022/08/12 03:08:42;;;;;;;1999.90;999.90;;;12.60;85.10;;;;;;4944756;29;20031;-83
2022/08/12 03:11:35;;;;;;;1999.90;999.90;;;12.60;85.20;;;;;;4939161;29;20066;-83
2022/08/12 03:14:01;;;;;;;1999.90;999.90;;;12.60;85.40;;;;;;4943339;29;20042;-84
2022/08/12 03:16:31;;;;;;;1999.90;999.90;;;12.50;85.70;;;;;;4946185;29;20307;-84
2022/08/12 03:18:57;;;;;;;1999.90;999.90;;;12.50;86.50;;;;;;4946997;29;20038;-83
2022/08/12 03:21:24;;;;;;;1999.90;999.90;;;12.60;85.80;;;;;;4945610;28;20036;-83
2022/08/12 03:23:54;;;;;;;1999.90;999.90;;;12.70;85.40;;;;;;4928724;29;20495;-83
2022/08/12 03:26:24;;;;;;;;;;;12.70;85.10;;;;;;4944677;29;20035;-83
2022/08/12 03:28:55;;;;;;;842.15;777.50;;;12.60;85.90;;;;;;4950117;29;20583;-83
2022/08/12 03:31:28;;;;;;;;;;;12.60;85.90;;;;;;4949875;29;20031;-83
2022/08/12 03:33:57;;;;;;;1137.75;841.78;;;12.50;87.00;;;;;;4934113;29;19957;-84
2022/08/12 03:36:26;;;;;;;1999.90;999.90;;;12.50;87.20;;;;;;4950288;29;20292;-83
2022/08/12 03:39:20;;;;;;;1999.90;999.90;;;12.40;88.00;;;;;;4951256;29;20043;-83
2022/08/12 03:42:01;;;;;;;1999.90;999.90;;;12.50;87.60;;;;;;4948569;29;20078;-83
2022/08/12 04:01:56;;;;;;;1999.90;999.90;;;12.50;89.00;;;;;;4959775;28;20714;-84
2022/08/12 04:04:32;;;;;;;1999.90;999.90;;;12.50;88.60;;;;;;4951201;28;20125;-84
2022/08/12 04:06:59;;;;;;;1999.90;999.90;;;12.60;88.50;;;;;;4966000;28;20033;-84
2022/08/12 04:09:26;;;;;;;1999.90;999.90;;;12.60;87.90;;;;;;4966349;28;20046;-84
2022/08/12 04:14:36;;;;;;;1999.90;999.90;;;12.60;89.10;;;;;;4954290;28;20513;-84
2022/08/12 04:17:02;;;;;;;1999.90;999.90;;;12.60;88.20;;;;;;4965590;28;20031;-83
2022/08/12 04:19:29;;;;;;;1999.90;999.90;;;12.50;88.70;;;;;;4967766;28;20035;-84
2022/08/12 04:21:56;;;;;;;1999.90;999.90;;;12.60;87.60;;;;;;4951155;28;20027;-83
2022/08/12 04:24:24;;;;;;;1999.90;999.90;;;12.60;88.00;;;;;;4966746;28;20062;-84
2022/08/12 04:26:50;;;;;;;1999.90;999.90;;;12.70;87.80;;;;;;4951376;28;20033;-84
2022/08/12 04:29:18;;;;;;;1999.90;999.90;;;12.70;88.10;;;;;;4967195;28;20031;-84
2022/08/12 04:31:44;;;;;;;1999.90;999.90;;;12.70;88.60;;;;;;4968675;28;20184;-84
2022/08/12 04:34:13;;;;;;;1999.90;999.90;;;12.60;88.00;;;;;;4969148;28;20053;-84
2022/08/12 04:36:40;;;;;;;1999.90;999.90;;;12.60;88.80;;;;;;4965676;28;20027;-84
2022/08/12 04:39:08;;;;;;;1999.90;999.90;;;12.70;87.60;;;;;;4967286;28;20035;-84
2022/08/12 04:41:36;;;;;;;1999.90;999.90;;;12.70;87.30;;;;;;4950222;28;20027;-84
2022/08/12 04:44:02;;;;;;;1999.90;999.90;;;12.80;87.20;;;;;;4966857;28;20220;-84
2022/08/12 04:46:28;;;;;;;1999.90;999.90;;;12.80;87.10;;;;;;4967335;28;20482;-85
2022/08/12 04:48:54;;;;;;;1999.90;999.90;;;12.80;87.10;;;;;;4966769;28;20035;-85
2022/08/12 04:51:21;;;;;;;1999.90;999.90;;;12.80;87.20;;;;;;4962179;28;20098;-86
2022/08/12 04:53:47;;;;;;;1999.90;999.90;;;12.90;86.60;;;;;;4956940;28;20031;-85
2022/08/12 04:56:14;;;;;;;1999.90;999.90;;;12.90;87.40;;;;;;4960110;28;20078;-84
2022/08/12 04:58:40;;;;;;;1999.90;999.90;;;13.00;87.00;;;;;;4967072;28;20034;-83
2022/08/12 05:01:07;;;;;;;1999.90;999.90;;;13.00;86.90;;;;;;4951395;28;20042;-84
2022/08/12 05:03:39;;;;;;;1999.90;999.90;;;13.00;88.10;;;;;;4951562;28;20046;-84
2022/08/12 05:06:06;;;;;;;1999.90;999.90;;;12.90;88.90;;;;;;4938545;28;20031;-84
2022/08/12 05:08:33;;;;;;;1999.90;999.90;;;13.00;87.30;;;;;;4974400;28;20725;-84
2022/08/12 05:10:59;;;;;;;1999.90;999.90;;;13.00;87.40;;;;;;4968109;28;20055;-89
2022/08/12 05:13:36;;;;;;;1999.90;999.90;;;13.10;87.20;;;;;;4967022;28;20045;-89
2022/08/12 05:16:02;;;;;;;1999.90;999.90;;;13.20;88.10;;;;;;4950252;28;20035;-92
2022/08/12 05:18:28;;;;;;;1999.90;999.90;;;13.30;87.10;;;;;;4968728;28;20162;-90
2022/08/12 05:20:54;;;;;;;1999.90;999.90;;;13.40;86.00;;;;;;4968525;28;20045;-86
2022/08/12 05:23:21;;;;;;;1999.90;999.90;;;13.40;86.50;;;;;;4952982;28;20442;-86
2022/08/12 05:25:49;;;;;;;1999.90;999.90;;;13.50;85.40;;;;;;4966113;28;20034;-86
2022/08/12 05:28:16;;;;;;;1999.90;999.90;;;13.50;84.80;;;;;;4951126;28;20023;-83
2022/08/12 05:30:44;;;;;;;1999.90;999.90;;;13.60;83.90;;;;;;4934687;28;20023;-84
2022/08/12 05:33:11;;;;;;;1999.90;999.90;;;13.60;84.80;;;;;;4951416;28;20130;-84
2022/08/12 05:35:40;;;;;;;1999.90;999.90;;;13.60;85.60;;;;;;4968718;28;20030;-84
2022/08/12 05:40:59;;;;;;;1999.90;999.90;;;13.90;82.90;;;;;;4965021;28;20082;-83
2022/08/12 05:43:25;;;;;;;1999.90;999.90;;;13.80;82.50;;;;;;4950556;28;20034;-83
2022/08/12 05:45:51;;;;;;;1999.90;999.90;;;13.90;83.50;;;;;;4949906;28;20117;-83
2022/08/12 05:48:17;;;;;;;1999.90;999.90;;;13.90;84.00;;;;;;4968723;28;20434;-86
2022/08/12 05:50:45;;;;;;;1999.90;999.90;;;14.00;83.20;;;;;;4966854;28;20054;-82
2022/08/12 05:53:12;;;;;;;1999.90;999.90;;;14.00;83.10;;;;;;4916578;28;20030;-83
2022/08/12 05:55:39;;;;;;;1999.90;999.90;;;14.00;83.30;;;;;;4964730;28;20365;-83
2022/08/12 05:58:06;;;;;;;1999.90;999.90;;;14.00;83.90;;;;;;4949156;28;20033;-83
2022/08/12 06:00:33;;;;;;;916.95;629.72;;;14.10;82.20;;;;;;4947704;28;20039;-83
2022/08/12 06:03:02;;;;;;;1999.90;999.90;;;14.10;81.80;;;;;;4948441;28;20031;-83
2022/08/12 06:05:33;;;;;;;1999.90;999.90;;;14.20;81.90;;;;;;4932037;28;20058;-83
2022/08/12 06:07:59;;;;;;;;;;;14.20;82.20;;;;;;4966930;28;20602;-83
2022/08/12 06:10:24;;;;;;;1999.90;999.90;;;14.30;82.50;;;;;;4966800;28;19913;-83
2022/08/12 06:12:51;;;;;;;1999.90;999.90;;;14.40;83.70;;;;;;4965343;28;20097;-83
2022/08/12 06:15:18;;;;;;;817.10;748.20;;;14.40;83.70;;;;;;4949571;28;20110;-83
2022/08/12 06:17:44;;;;;;;1999.90;999.90;;;14.50;81.70;;;;;;4963372;28;20117;-83
2022/08/12 06:20:12;;;;;;;1999.90;999.90;;;14.50;83.10;;;;;;4949380;28;20142;-83
2022/08/12 06:22:39;;;;;;;1999.90;999.90;;;14.70;82.00;;;;;;4917904;28;20037;-83
2022/08/12 06:25:05;;;;;;;1999.90;999.90;;;14.80;83.20;;;;;;4966385;28;20031;-83
2022/08/12 06:27:32;;;;;;;1999.90;999.90;;;14.80;81.30;;;;;;4948861;28;20076;-83
2022/08/12 06:29:57;;;;;;;1999.90;999.90;;;14.80;83.20;;;;;;4947894;28;20027;-82
2022/08/12 06:32:23;;;;;;;1999.90;999.90;;;15.00;80.30;;;;;;4945923;28;20034;-83
2022/08/12 06:34:49;;;;;;;1999.90;999.90;;;15.00;80.30;;;;;;4947452;29;20543;-82
2022/08/12 06:37:17;;;;;;;1999.90;999.90;;;15.10;81.40;;;;;;4947420;29;20027;-83
2022/08/12 06:39:43;;;;;;;1999.90;999.90;;;15.30;81.90;;;;;;4947470;29;20481;-82
2022/08/12 06:44:53;;;;;;;770.47;684.10;;;15.30;78.60;;;;;;4946619;29;20050;-83
2022/08/12 06:47:20;;;;;;;1999.90;999.90;;;15.40;78.80;;;;;;4945607;29;20035;-82
2022/08/12 06:49:48;;;;;;;1999.90;999.90;;;15.50;80.40;;;;;;4944621;29;20032;-82
2022/08/12 06:52:13;;;;;;;1999.90;999.90;;;15.60;80.70;;;;;;4945140;29;20055;-82
2022/08/12 06:54:43;;;;;;;1999.90;999.90;;;15.70;80.10;;;;;;4945516;28;20178;-82
2022/08/12 06:57:08;;;;;;;1999.90;999.90;;;15.70;79.90;;;;;;4930136;29;20171;-82
2022/08/12 06:59:34;;;;;;;957.88;861.47;;;15.80;79.40;;;;;;4947220;29;20031;-83
2022/08/12 07:02:00;;;;;;;1999.90;999.90;;;15.80;78.40;;;;;;4945767;28;20506;-83
2022/08/12 07:04:26;;;;;;;1999.90;999.90;;;16.10;80.30;;;;;;4950806;29;20247;-83
2022/08/12 07:06:54;;;;;;;1999.90;999.90;;;16.10;78.50;;;;;;4950728;29;20525;-83
2022/08/12 07:09:20;;;;;;;1999.90;999.90;;;16.30;78.40;;;;;;4950892;29;20034;-83
2022/08/12 07:11:45;;;;;;;1999.90;999.90;;;16.40;78.10;;;;;;4947600;29;20395;-82
2022/08/12 07:14:11;;;;;;;1999.90;999.90;;;16.50;77.80;;;;;;4948829;29;20109;-83
2022/08/12 07:16:52;;;;;;;1999.90;999.90;;;16.60;80.10;;;;;;4961359;28;20742;-82
2022/08/12 07:19:19;;;;;;;1999.90;999.90;;;16.80;77.80;;;;;;4950955;29;20024;-82
2022/08/12 07:21:46;;;;;;;1999.90;999.90;;;17.00;74.90;;;;;;4933497;29;20031;-83
2022/08/12 07:24:13;;;;;;;1999.90;999.90;;;17.10;74.80;;;;;;4945547;29;20066;-83
2022/08/12 07:26:40;;;;;;;1999.90;999.90;;;17.30;74.10;;;;;;4965186;28;20083;-83
2022/08/12 07:29:09;;;;;;;1999.90;999.90;;;17.50;73.00;;;;;;4950622;29;20042;-82
2022/08/12 07:31:38;;;;;;;1087.90;978.15;;;17.50;74.00;;;;;;4942938;28;20065;-82
2022/08/12 07:34:05;;;;;;;1027.40;906.55;;;17.70;68.80;;;;;;4950910;28;20471;-82
2022/08/12 07:36:32;;;;;;;1112.38;994.40;;;18.00;67.80;;;;;;4969308;28;20027;-83
2022/08/12 07:38:59;;;;;;;1381.30;986.22;;;18.10;65.40;;;;;;4965630;28;20078;-83
2022/08/12 07:41:29;;;;;;;1145.40;999.90;;;18.30;65.40;;;;;;4952519;28;20030;-82
2022/08/12 07:43:57;;;;;;;1238.68;999.90;;;18.30;63.90;;;;;;4952137;28;20039;-82
2022/08/12 07:46:29;;;;;;;1206.05;999.90;;;18.50;64.20;;;;;;4967948;28;20019;-82
2022/08/12 07:48:58;;;;;;;1348.75;999.90;;;18.30;63.80;;;;;;4969304;28;20050;-82
2022/08/12 07:51:25;;;;;;;1154.75;999.58;;;18.70;63.10;;;;;;4969256;28;20058;-82
2022/08/12 07:53:56;;;;;;;1094.53;966.17;;;18.90;61.40;;;;;;4969582;28;20031;-82
2022/08/12 07:56:22;;;;;;;973.45;894.17;;;19.10;60.60;;;;;;4957003;28;20707;-82
2022/08/12 07:58:48;;;;;;;1437.53;999.90;;;19.20;58.10;;;;;;4969937;28;20138;-82
2022/08/12 08:01:18;;;;;;;1196.57;997.80;;;19.20;61.30;;;;;;4951914;28;20038;-84
2022/08/12 08:06:32;;;;;;;988.67;908.17;;;19.80;58.80;;;;;;4967004;28;20649;-82
2022/08/12 08:08:59;;;;;;;1100.63;987.90;;;19.80;56.40;;;;;;4951906;28;20031;-82
2022/08/12 08:14:10;;;;;;;1027.65;933.17;;;20.10;55.40;;;;;;4966867;28;20046;-83
2022/08/12 08:16:40;;;;;;;1128.63;999.47;;;20.20;55.40;;;;;;4964918;28;20564;-82
2022/08/12 08:19:14;;;;;;;1055.90;956.22;;;20.40;53.70;;;;;;4968799;28;20094;-82
2022/08/12 08:21:41;;;;;;;1141.53;986.95;;;20.20;53.70;;;;;;4952598;28;20042;-82
2022/08/12 08:24:13;;;;;;;977.67;899.33;;;20.30;55.20;;;;;;4965419;28;20138;-83
2022/08/12 08:26:39;;;;;;;1048.30;947.75;;;20.60;51.50;;;;;;4967247;28;20062;-82
2022/08/12 08:29:07;;;;;;;1077.90;967.63;;;20.70;51.50;;;;;;4967332;28;20106;-82
2022/08/12 08:31:34;;;;;;;1394.40;933.92;;;20.80;51.10;;;;;;4951112;28;20049;-82
2022/08/12 08:34:00;;;;;;;1009.42;905.17;;;20.90;53.60;;;;;;4949848;28;20113;-82
2022/08/12 08:36:26;;;;;;;1000.00;890.88;;;21.20;52.40;;;;;;4968292;28;20115;-83
2022/08/12 08:38:52;;;;;;;877.88;812.42;;;21.20;49.20;;;;;;4951367;28;20113;-82
2022/08/12 08:44:03;;;;;;;912.33;842.00;;;21.30;49.20;;;;;;4953097;28;20030;-82
2022/08/12 08:46:28;;;;;;;810.55;754.78;;;21.40;45.70;;;;;;4965288;28;20035;-82
2022/08/12 08:48:55;;;;;;;759.33;702.55;;;21.70;46.00;;;;;;4966972;28;20078;-83
2022/08/12 08:51:24;;;;;;;671.78;624.90;;;21.80;42.10;;;;;;4967754;28;20138;-82
2022/08/12 08:53:52;;;;;;;822.77;765.23;;;21.70;41.70;;;;;;4950406;28;20027;-82
2022/08/12 08:56:18;;;;;;;782.83;733.85;;;21.70;43.30;;;;;;4945712;28;20346;-82
2022/08/12 08:58:44;;;;;;;756.30;705.10;;;22.00;43.00;;;;;;4939553;29;20085;-82
2022/08/12 09:01:10;;;;;;;639.13;601.63;;;22.20;42.30;;;;;;4938338;28;20027;-83
2022/08/12 09:03:36;;;;;;;883.33;821.65;;;22.10;40.80;;;;;;4938767;28;20042;-82
2022/08/12 09:06:02;;;;;;;738.88;692.13;;;22.20;44.50;;;;;;4958589;28;20112;-83
2022/08/12 09:08:28;;;;;;;720.85;674.10;;;22.30;39.60;;;;;;4922593;28;20079;-82
2022/08/12 09:10:57;;;;;;;927.58;850.33;;;22.50;41.50;;;;;;4951600;28;20031;-83
2022/08/12 09:13:33;;;;;;;801.28;748.70;;;22.50;40.70;;;;;;4958948;28;20323;-82
2022/08/12 09:15:59;;;;;;;810.13;758.47;;;22.60;40.00;;;;;;4943992;28;20039;-83
2022/08/12 09:18:26;;;;;;;668.95;630.97;;;23.00;39.10;;;;;;4915756;28;20038;-82
2022/08/12 09:20:52;;;;;;;867.60;804.05;;;22.90;38.90;;;;;;4939909;28;20038;-83
2022/08/12 09:23:18;;;;;;;862.72;790.45;;;22.80;38.60;;;;;;4954203;28;20042;-82
2022/08/12 09:25:44;;;;;;;850.47;792.33;;;23.10;37.80;;;;;;4949600;28;20038;-83
2022/08/12 09:28:10;;;;;;;858.85;776.05;;;23.20;38.30;;;;;;4937536;28;20665;-83
2022/08/12 09:30:37;;;;;;;911.13;839.17;;;23.20;35.80;;;;;;4952103;28;20042;-82
2022/08/12 09:33:05;;;;;;;608.83;567.25;;;23.10;37.70;;;;;;4955684;28;20031;-82
2022/08/12 09:35:32;;;;;;;703.47;653.47;;;23.40;35.20;;;;;;4960036;28;20117;-83
2022/08/12 09:38:03;;;;;;;410.50;390.30;;;23.20;35.60;;;;;;4957092;28;20034;-81
2022/08/12 09:40:29;;;;;;;;;;;23.30;33.10;;;;;;4934943;28;20509;-82
2022/08/12 09:45:40;;;;;;;428.48;408.75;;;23.80;35.90;;;;;;4952944;28;20042;-82
2022/08/12 09:48:07;;;;;;;741.08;686.97;;;23.80;34.20;;;;;;4935101;28;20031;-83
2022/08/12 09:50:34;;;;;;;559.75;530.80;;;23.80;33.80;;;;;;4940149;28;20027;-82
2022/08/12 09:53:23;;;;;;;541.75;508.50;;;23.80;33.50;;;;;;4954484;28;20033;-83
2022/08/12 09:55:54;;;;;;;903.40;828.40;;;23.50;31.40;;;;;;4956979;28;20055;-83
2022/08/12 09:58:28;;;;;;;659.10;617.72;;;23.60;31.90;;;;;;4915016;28;20026;-82
2022/08/12 10:01:05;;;;;;;829.70;767.45;;;23.70;31.50;;;;;;4966430;28;20058;-82
2022/08/12 10:03:32;;;;;;;966.72;890.75;;;23.80;31.90;;;;;;4963651;28;20031;-82
2022/08/12 10:05:59;;;;;;;979.78;867.42;;;24.20;34.80;;;;;;4964114;28;20031;-82
2022/08/12 10:08:29;;;;;;;851.53;787.55;;;24.20;33.00;;;;;;4948244;28;20093;-82
2022/08/12 10:13:41;;;;;;;883.20;785.90;;;24.40;30.80;;;;;;4965973;28;20069;-83
2022/08/12 10:16:16;;;;;;;821.95;758.38;;;24.50;31.60;;;;;;4963435;28;20577;-82
2022/08/12 10:18:44;;;;;;;883.15;804.97;;;24.60;31.40;;;;;;4965511;28;20034;-82
2022/08/12 10:21:12;;;;;;;1009.60;901.05;;;24.60;32.00;;;;;;4964666;28;20050;-82
2022/08/12 10:23:39;;;;;;;847.38;783.15;;;24.60;30.20;;;;;;4947516;28;20402;-82
2022/08/12 10:31:37;;;;;;;780.95;729.83;;;24.70;32.30;;;;;;4940792;29;20261;-82
2022/08/12 10:34:04;;;;;;;775.05;709.97;;;24.80;29.80;;;;;;4947523;29;20058;-82
2022/08/12 10:36:31;;;;;;;901.42;818.67;;;24.70;28.60;;;;;;4945459;28;20039;-83
2022/08/12 10:38:57;;;;;;;558.80;524.05;;;24.80;29.20;;;;;;4945673;29;20027;-83
2022/08/12 10:44:11;;;;;;;923.88;805.63;;;24.80;30.80;;;;;;4932645;29;20108;-83
2022/08/12 10:46:37;;;;;;;861.45;798.95;;;24.80;30.00;;;;;;4927430;29;20506;-82
2022/08/12 10:49:03;;;;;;;857.03;797.05;;;25.00;31.40;;;;;;4945828;29;20039;-82
2022/08/12 10:51:29;;;;;;;980.95;740.17;;;25.50;28.90;;;;;;4946829;29;20016;-83
2022/08/12 10:53:55;;;;;;;860.42;799.92;;;25.20;27.90;;;;;;4946933;29;20115;-83
2022/08/12 10:56:21;;;;;;;841.72;783.58;;;25.30;30.40;;;;;;4946340;28;20134;-83
2022/08/12 10:58:47;;;;;;;811.83;758.33;;;25.50;28.80;;;;;;4947053;29;20027;-82
2022/08/12 11:01:17;;;;;;;829.00;768.25;;;26.10;27.40;;;;;;4953320;28;20038;-83
2022/08/12 11:03:43;;;;;;;765.55;709.25;;;26.40;30.60;;;;;;4964934;28;20607;-82
2022/08/12 11:06:10;;;;;;;806.55;726.40;;;26.60;29.00;;;;;;4948432;28;20077;-82
2022/08/12 11:08:38;;;;;;;750.63;705.08;;;26.30;26.90;;;;;;4951856;28;20338;-82
2022/08/12 11:11:07;;;;;;;802.63;738.63;;;26.80;26.20;;;;;;4965940;28;20019;-83
2022/08/12 11:13:34;;;;;;;893.42;814.53;;;27.30;25.40;;;;;;4963307;28;20038;-83
2022/08/12 11:16:00;;;;;;;778.08;719.60;;;26.80;26.50;;;;;;4960991;28;20142;-83
2022/08/12 11:18:26;;;;;;;1082.90;784.30;;;26.90;25.70;;;;;;4966028;28;20038;-83
2022/08/12 11:20:53;;;;;;;812.13;756.83;;;27.30;25.20;;;;;;4965208;28;20023;-83
2022/08/12 11:23:20;;;;;;;813.97;749.22;;;27.50;26.80;;;;;;4964144;28;20054;-83
2022/08/12 11:25:46;;;;;;;887.85;811.90;;;27.30;25.90;;;;;;4947244;28;20073;-83
2022/08/12 11:28:14;;;;;;;633.45;587.72;;;27.30;25.80;;;;;;4963315;28;20194;-82
2022/08/12 11:30:40;;;;;;;667.67;616.97;;;27.50;25.30;;;;;;4944868;29;20090;-83
2022/08/12 11:33:07;;;;;;;707.67;662.38;;;27.60;23.80;;;;;;4960748;28;20046;-84
2022/08/12 11:35:35;;;;;;;725.30;653.80;;;27.80;25.20;;;;;;4943541;29;20593;-82
2022/08/12 11:38:03;;;;;;;524.92;499.50;;;28.70;26.20;;;;;;4946869;29;20069;-83
2022/08/12 11:40:30;;;;;;;527.50;500.08;;;28.40;25.50;;;;;;4946526;29;20047;-82
2022/08/12 11:42:59;;;;;;;514.00;487.17;;;28.50;23.60;;;;;;4929236;29;20134;-83
2022/08/12 11:45:28;;;;;;;540.50;514.57;;;28.40;24.00;;;;;;4928932;29;20069;-83
2022/08/12 11:48:00;;;;;;;636.72;593.10;;;28.50;24.80;;;;;;4940930;28;20028;-83
2022/08/12 11:50:26;;;;;;;762.85;703.13;;;28.10;25.40;;;;;;4920513;29;20038;-83
2022/08/12 11:52:52;;;;;;;847.83;703.00;;;28.10;25.70;;;;;;4964968;28;20038;-83
2022/08/12 11:55:18;;;;;;;816.53;744.28;;;28.30;26.30;;;;;;4949873;28;20455;-82
2022/08/12 11:57:49;;;;;;;826.78;765.25;;;28.20;24.00;;;;;;4932328;29;20490;-82
2022/08/12 12:00:15;;;;;;;667.83;630.65;;;28.70;25.50;;;;;;4945730;28;20117;-83
2022/08/12 12:02:41;;;;;;;571.25;542.40;;;29.60;24.60;;;;;;4949228;28;20104;-82
2022/08/12 12:05:07;;;;;;;522.10;496.63;;;30.70;24.10;;;;;;4968220;28;20039;-82
2022/08/12 12:07:36;;;;;;;643.97;610.70;;;30.40;23.10;;;;;;4966337;28;20023;-80
2022/08/12 12:10:02;;;;;;;525.33;498.02;;;30.10;23.40;;;;;;4957608;28;20027;-82
2022/08/12 12:12:28;;;;;;;455.15;432.83;;;30.00;22.50;;;;;;4948557;28;20038;-81
2022/08/12 12:14:53;;;;;;;635.30;596.58;;;30.40;22.20;;;;;;4951316;28;20490;-81
2022/08/12 12:17:19;;;;;;;661.85;618.42;;;30.80;22.70;;;;;;4965617;28;20134;-82
2022/08/12 12:19:45;;;;;;;688.50;649.20;;;30.40;21.90;;;;;;4951167;28;20039;-81
2022/08/12 12:22:10;;;;;;;546.55;517.85;;;30.20;23.20;;;;;;4948385;28;20462;-84
2022/08/12 12:24:36;;;;;;;673.85;635.60;;;30.70;21.60;;;;;;4966134;28;20045;-83
2022/08/12 12:27:02;;;;;;;672.75;633.53;;;30.10;22.80;;;;;;4952701;28;20770;-83
2022/08/12 12:29:31;;;;;;;650.35;615.22;;;28.60;23.60;;;;;;4945695;28;20042;-84
2022/08/12 12:31:56;;;;;;;579.25;545.60;;;28.60;25.30;;;;;;4937480;29;20031;-83
2022/08/12 12:34:22;;;;;;;732.25;685.92;;;27.50;25.50;;;;;;4947388;29;20415;-83
2022/08/12 12:36:48;;;;;;;671.30;626.72;;;27.70;25.30;;;;;;4949101;29;20032;-85
2022/08/12 12:39:14;;;;;;;567.53;535.17;;;27.80;25.00;;;;;;4930852;29;20086;-84
2022/08/12 12:41:40;;;;;;;774.63;723.33;;;26.60;24.60;;;;;;4918271;28;20031;-85
2022/08/12 12:44:05;;;;;;;834.05;773.83;;;26.40;27.00;;;;;;4918631;29;20470;-82
2022/08/12 12:46:31;;;;;;;650.03;593.78;;;26.00;26.00;;;;;;4950755;29;20058;-81
2022/08/12 12:48:56;;;;;;;754.63;705.25;;;25.90;25.50;;;;;;4949474;29;20027;-83
2022/08/12 12:51:22;;;;;;;804.15;746.05;;;27.10;26.70;;;;;;4964682;28;20027;-83
2022/08/12 12:53:50;;;;;;;768.92;718.15;;;28.70;26.90;;;;;;4949803;29;20510;-82
2022/08/12 12:56:24;;;;;;;548.83;520.90;;;31.10;24.20;;;;;;4922379;29;20736;-84
2022/08/12 12:58:51;;;;;;;488.90;465.75;;;31.40;22.90;;;;;;4958476;28;20034;-83
2022/08/12 13:01:20;;;;;;;524.60;498.17;;;29.50;22.30;;;;;;4939678;28;20097;-81
2022/08/12 13:03:47;;;;;;;537.87;512.03;;;29.00;22.40;;;;;;4948479;28;20094;-86
2022/08/12 13:06:13;;;;;;;589.63;556.22;;;29.30;23.60;;;;;;4969864;28;20321;-88
2022/08/12 13:08:39;;;;;;;629.50;595.85;;;30.40;22.40;;;;;;4969953;28;20027;-87
2022/08/12 13:11:10;;;;;;;587.33;557.05;;;31.00;22.90;;;;;;4950961;28;20055;-86
2022/08/12 13:13:36;;;;;;;331.40;315.85;;;31.50;21.60;;;;;;4950873;28;20185;-87
2022/08/12 13:16:02;;;;;;;421.02;399.58;;;31.60;19.60;;;;;;4959819;28;20538;-88
2022/08/12 13:18:36;;;;;;;528.30;501.33;;;31.20;20.60;;;;;;4935999;28;20027;-83
2022/08/12 13:21:04;;;;;;;610.08;577.22;;;30.20;22.50;;;;;;4968761;28;20086;-84
2022/08/12 13:23:30;;;;;;;618.67;582.72;;;28.90;21.90;;;;;;4972154;28;20314;-83
2022/08/12 13:25:56;;;;;;;694.15;652.72;;;28.50;23.80;;;;;;4952587;28;20543;-80
2022/08/12 13:28:27;;;;;;;647.60;611.63;;;28.50;24.70;;;;;;4968701;28;20053;-83
2022/08/12 13:30:58;;;;;;;741.83;683.05;;;29.20;24.50;;;;;;4967048;28;20085;-86
2022/08/12 13:33:25;;;;;;;619.15;585.30;;;30.40;21.50;;;;;;4945507;28;20058;-83
2022/08/12 13:36:00;;;;;;;635.55;600.72;;;31.90;22.00;;;;;;4969341;28;20516;-84
2022/08/12 13:38:40;;;;;;;423.40;402.38;;;32.10;21.20;;;;;;4964980;28;20035;-83
2022/08/12 13:41:15;;;;;;;440.45;419.70;;;33.10;19.60;;;;;;4967345;28;20565;-87
2022/08/12 13:43:40;;;;;;;398.35;378.02;;;30.80;20.30;;;;;;4968057;28;20414;-83
2022/08/12 13:46:08;;;;;;;654.35;614.15;;;28.40;22.50;;;;;;4950788;28;20501;-82
2022/08/12 13:48:35;;;;;;;750.90;703.55;;;26.90;25.10;;;;;;4950000;28;20037;-82
2022/08/12 13:51:01;;;;;;;794.63;741.20;;;26.40;25.80;;;;;;4963296;28;20086;-83
2022/08/12 13:53:28;;;;;;;824.67;767.72;;;25.90;26.40;;;;;;4964689;28;20038;-84
2022/08/12 13:55:53;;;;;;;776.97;722.55;;;27.60;26.20;;;;;;4960524;28;20049;-82
2022/08/12 13:58:20;;;;;;;699.65;660.53;;;29.40;24.20;;;;;;4963528;28;20027;-83
2022/08/12 14:00:52;;;;;;;549.75;520.65;;;31.10;21.60;;;;;;4964686;28;20045;-83
2022/08/12 14:03:20;;;;;;;592.63;562.15;;;32.50;20.50;;;;;;4932745;28;20035;-83